createdAt,value
2022-11-08T00:01:09.861Z,2.20
2022-11-08T00:05:34.874Z,2.75
2022-11-08T00:07:52.403Z,2.55
2022-11-08T00:10:10.668Z,2.72
2022-11-08T00:12:29.888Z,2.60
2022-11-08T00:14:35.244Z,3.10
2022-11-08T00:16:40.629Z,2.13
2022-11-08T00:18:50.952Z,2.60
2022-11-08T00:20:55.970Z,2.20
2022-11-08T00:23:01.057Z,2.30
2022-11-08T00:25:07.293Z,2.42
2022-11-08T00:27:16.751Z,2.53
2022-11-08T00:29:21.938Z,2.33
2022-11-08T00:31:27.430Z,2.17
2022-11-08T00:33:33.997Z,1.98
2022-11-08T00:35:42.374Z,1.98
2022-11-08T00:37:47.413Z,2.08
2022-11-08T00:39:52.692Z,2.35
2022-11-08T00:41:58.030Z,2.30
2022-11-08T00:44:03.249Z,2.30
2022-11-08T00:46:08.502Z,2.13
2022-11-08T00:48:13.735Z,2.00
2022-11-08T00:50:19.710Z,2.28
2022-11-08T00:52:27.339Z,1.70
2022-11-08T00:54:32.612Z,2.08
2022-11-08T00:56:38.416Z,2.15
2022-11-08T00:58:44.580Z,2.13
2022-11-08T01:00:49.629Z,2.70
2022-11-08T01:03:15.197Z,2.20
2022-11-08T01:05:20.502Z,2.70
2022-11-08T01:07:28.096Z,2.58
2022-11-08T01:09:34.941Z,2.70
2022-11-08T01:11:45.367Z,3.08
2022-11-08T01:13:54.657Z,2.60
2022-11-08T01:15:59.856Z,2.70
2022-11-08T01:18:07.292Z,3.00
2022-11-08T01:20:13.789Z,3.17
2022-11-08T01:22:18.876Z,2.63
2022-11-08T01:24:26.929Z,2.30
2022-11-08T01:26:32.959Z,2.50
2022-11-08T01:28:39.166Z,2.28
2022-11-08T01:30:47.191Z,2.60
2022-11-08T01:32:52.198Z,2.67
2022-11-08T01:34:57.749Z,2.95
2022-11-08T01:37:03.412Z,2.85
2022-11-08T01:39:08.957Z,4.18
2022-11-08T01:41:19.720Z,3.80
2022-11-08T01:43:41.108Z,3.30
2022-11-08T01:46:40.212Z,3.80
2022-11-08T01:48:51.634Z,3.90
2022-11-08T01:51:00.602Z,3.92
2022-11-08T01:53:06.039Z,4.47
2022-11-08T01:55:18.072Z,4.20
2022-11-08T01:57:30.362Z,3.17
2022-11-08T01:59:37.720Z,3.90
2022-11-08T02:01:43.256Z,3.90
2022-11-08T02:03:48.623Z,3.28
2022-11-08T02:05:54.409Z,3.45
2022-11-08T02:08:05.175Z,3.03
2022-11-08T02:10:12.086Z,2.85
2022-11-08T02:12:18.791Z,3.08
2022-11-08T02:14:26.513Z,2.10
2022-11-08T02:16:31.566Z,2.30
2022-11-08T02:18:37.647Z,2.58
2022-11-08T02:20:46.574Z,2.45
2022-11-08T02:23:01.996Z,2.58
2022-11-08T02:25:11.177Z,2.60
2022-11-08T02:27:17.471Z,3.00
2022-11-08T02:29:29.016Z,2.97
2022-11-08T02:31:35.236Z,2.58
2022-11-08T02:33:40.725Z,2.30
2022-11-08T02:35:47.745Z,13.30
2022-11-08T02:37:58.276Z,3.10
2022-11-08T02:40:04.671Z,9.30
2022-11-08T02:42:16.853Z,3.08
2022-11-08T02:44:22.565Z,2.45
2022-11-08T02:46:29.750Z,3.05
2022-11-08T02:48:34.860Z,2.53
2022-11-08T02:50:41.250Z,2.88
2022-11-08T02:52:46.744Z,2.90
2022-11-08T02:54:54.367Z,8.70
2022-11-08T02:59:08.056Z,3.55
2022-11-08T03:01:15.173Z,3.15
2022-11-08T03:03:20.302Z,3.92
2022-11-08T03:05:26.873Z,4.20
2022-11-08T03:07:32.245Z,3.95
2022-11-08T03:09:38.096Z,3.17
2022-11-08T03:11:43.985Z,3.28
2022-11-08T03:13:48.989Z,2.72
2022-11-08T03:15:56.623Z,2.90
2022-11-08T03:18:02.994Z,2.75
2022-11-08T03:20:12.474Z,5.70
2022-11-08T03:22:18.482Z,3.75
2022-11-08T03:24:24.107Z,2.20
2022-11-08T03:26:29.166Z,1.65
2022-11-08T03:28:35.322Z,2.70
2022-11-08T03:30:40.814Z,2.10
2022-11-08T03:32:49.865Z,2.08
2022-11-08T03:34:54.934Z,3.40
2022-11-08T03:37:00.308Z,3.38
2022-11-08T03:39:05.741Z,4.13
2022-11-08T03:41:10.858Z,3.30
2022-11-08T03:43:17.071Z,3.58
2022-11-08T03:45:22.351Z,3.40
2022-11-08T03:47:27.460Z,4.30
2022-11-08T03:49:35.082Z,4.30
2022-11-08T03:51:40.125Z,4.72
2022-11-08T03:53:45.505Z,4.90
2022-11-08T03:55:50.496Z,3.97
2022-11-08T03:57:56.673Z,9.05
2022-11-08T04:00:02.042Z,12.98
2022-11-08T04:02:16.798Z,10.85
2022-11-08T04:04:22.264Z,7.07
2022-11-08T04:06:30.132Z,18.25
2022-11-08T04:08:35.606Z,11.75
2022-11-08T04:10:40.925Z,10.82
2022-11-08T04:12:59.223Z,7.82
2022-11-08T04:15:17.776Z,7.30
2022-11-08T04:20:00.758Z,3.72
2022-11-08T04:22:07.957Z,5.00
2022-11-08T04:24:13.489Z,5.40
2022-11-08T04:26:20.700Z,3.47
2022-11-08T04:28:28.686Z,4.47
2022-11-08T04:32:39.425Z,3.60
2022-11-08T04:34:44.430Z,3.35
2022-11-08T04:36:52.455Z,3.42
2022-11-08T04:39:00.453Z,3.95
2022-11-08T04:41:09.374Z,3.40
2022-11-08T04:43:16.082Z,3.70
2022-11-08T04:45:21.854Z,3.10
2022-11-08T04:47:26.907Z,3.90
2022-11-08T04:49:33.933Z,3.38
2022-11-08T04:51:42.240Z,3.50
2022-11-08T04:53:47.328Z,5.70
2022-11-08T04:56:06.359Z,3.60
2022-11-08T04:58:13.689Z,8.55
2022-11-08T05:00:20.394Z,4.00
2022-11-08T05:02:25.855Z,2.90
2022-11-08T05:04:31.009Z,6.78
2022-11-08T05:06:36.045Z,2.60
2022-11-08T05:08:42.343Z,6.18
2022-11-08T05:10:48.774Z,10.32
2022-11-08T05:12:59.491Z,8.73
2022-11-08T05:15:04.815Z,3.35
2022-11-08T05:17:09.871Z,3.17
2022-11-08T05:19:35.247Z,2.60
2022-11-08T05:21:52.742Z,11.27
2022-11-08T05:23:58.006Z,12.65
2022-11-08T05:26:05.256Z,3.92
2022-11-08T05:28:15.468Z,6.57
2022-11-08T05:30:21.117Z,3.78
2022-11-08T05:32:26.565Z,4.00
2022-11-08T05:34:32.086Z,4.45
2022-11-08T05:36:37.728Z,5.47
2022-11-08T05:38:43.467Z,5.30
2022-11-08T05:40:51.131Z,4.70
2022-11-08T05:45:09.215Z,3.55
2022-11-08T05:47:15.344Z,3.25
2022-11-08T05:49:20.671Z,3.72
2022-11-08T05:51:26.916Z,4.43
2022-11-08T05:53:31.989Z,11.15
2022-11-08T05:55:37.014Z,5.50
2022-11-08T05:57:46.138Z,5.20
2022-11-08T05:59:51.213Z,3.85
2022-11-08T06:01:59.607Z,2.63
2022-11-08T06:06:14.740Z,3.13
2022-11-08T06:08:19.698Z,3.35
2022-11-08T06:10:25.856Z,2.75
2022-11-08T06:12:31.284Z,7.53
2022-11-08T06:14:38.302Z,5.05
2022-11-08T06:16:43.606Z,10.50
2022-11-08T06:18:53.326Z,4.70
2022-11-08T06:20:58.548Z,6.20
2022-11-08T06:23:03.941Z,4.32
2022-11-08T06:25:09.621Z,5.20
2022-11-08T06:27:16.399Z,5.25
2022-11-08T06:29:32.562Z,4.13
2022-11-08T06:31:42.706Z,5.50
2022-11-08T06:33:51.784Z,4.50
2022-11-08T06:35:59.656Z,4.10
2022-11-08T06:38:09.283Z,4.45
2022-11-08T06:40:17.625Z,4.20
2022-11-08T06:42:22.861Z,5.22
2022-11-08T06:44:28.258Z,4.28
2022-11-08T06:46:33.221Z,4.93
2022-11-08T06:48:39.535Z,4.75
2022-11-08T06:50:48.398Z,5.40
2022-11-08T06:53:00.309Z,5.95
2022-11-08T06:55:05.969Z,5.55
2022-11-08T06:57:15.914Z,6.05
2022-11-08T06:59:21.078Z,5.40
2022-11-08T07:01:27.514Z,6.78
2022-11-08T07:03:32.630Z,6.95
2022-11-08T07:05:38.478Z,6.72
2022-11-08T07:07:51.990Z,6.32
2022-11-08T07:10:02.348Z,6.25
2022-11-08T07:12:12.044Z,5.55
2022-11-08T07:16:22.652Z,6.43
2022-11-08T07:18:28.518Z,6.15
2022-11-08T07:20:34.091Z,7.55
2022-11-08T07:22:41.039Z,6.75
2022-11-08T07:24:49.127Z,7.80
2022-11-08T07:29:01.606Z,6.57
2022-11-08T07:31:09.597Z,6.38
2022-11-08T07:33:17.491Z,7.03
2022-11-08T07:35:23.334Z,6.45
2022-11-08T07:37:28.759Z,7.40
2022-11-08T07:39:34.421Z,7.18
2022-11-08T07:41:42.201Z,7.32
2022-11-08T07:45:59.393Z,7.40
2022-11-08T07:48:11.052Z,6.50
2022-11-08T07:50:28.166Z,7.35
2022-11-08T07:52:34.394Z,7.55
2022-11-08T07:54:47.954Z,7.25
2022-11-08T07:56:55.953Z,8.75
2022-11-08T08:01:07.639Z,7.45
2022-11-08T08:03:15.457Z,7.50
2022-11-08T08:05:22.243Z,7.75
2022-11-08T08:07:27.595Z,6.25
2022-11-08T08:09:34.519Z,7.40
2022-11-08T08:11:39.482Z,6.10
2022-11-08T08:13:47.050Z,5.25
2022-11-08T08:15:52.207Z,5.25
2022-11-08T08:18:02.345Z,4.93
2022-11-08T08:20:10.406Z,4.07
2022-11-08T08:22:17.256Z,4.60
2022-11-08T08:24:23.133Z,4.45
2022-11-08T08:26:30.468Z,4.30
2022-11-08T08:28:36.414Z,3.53
2022-11-08T08:30:48.645Z,3.35
2022-11-08T08:33:21.905Z,3.80
2022-11-08T08:35:22.151Z,3.58
2022-11-08T08:37:27.145Z,3.60
2022-11-08T08:39:32.574Z,3.35
2022-11-08T08:41:39.943Z,3.72
2022-11-08T08:43:46.818Z,3.40
2022-11-08T08:45:57.610Z,3.00
2022-11-08T08:48:06.468Z,2.60
2022-11-08T08:50:12.729Z,2.40
2022-11-08T08:52:17.657Z,2.80
2022-11-08T08:54:26.881Z,2.97
2022-11-08T08:56:36.652Z,2.88
2022-11-08T09:03:41.815Z,2.83
2022-11-08T09:05:47.371Z,2.38
2022-11-08T09:07:58.078Z,2.50
2022-11-08T09:10:04.818Z,2.47
2022-11-08T09:12:14.577Z,1.80
2022-11-08T09:14:29.222Z,1.55
2022-11-08T09:16:43.122Z,1.90
2022-11-08T09:18:51.083Z,2.03
2022-11-08T09:21:00.469Z,1.50
2022-11-08T09:23:09.620Z,1.75
2022-11-08T09:25:16.256Z,1.75
2022-11-08T09:27:21.654Z,2.88
2022-11-08T09:29:26.957Z,1.77
2022-11-08T09:31:31.941Z,1.42
2022-11-08T09:33:43.342Z,1.60
2022-11-08T09:35:49.359Z,1.23
2022-11-08T09:37:56.626Z,1.90
2022-11-08T09:40:02.342Z,1.65
2022-11-08T09:42:44.517Z,1.73
2022-11-08T09:45:08.498Z,1.58
2022-11-08T09:47:22.014Z,1.30
2022-11-08T09:49:38.866Z,1.15
2022-11-08T09:51:48.690Z,1.15
2022-11-08T09:53:59.500Z,1.40
2022-11-08T09:56:16.304Z,1.40
2022-11-08T09:58:33.116Z,1.52
2022-11-08T10:00:44.391Z,1.27
2022-11-08T10:02:49.898Z,1.10
2022-11-08T10:05:03.337Z,1.45
2022-11-08T10:07:26.240Z,1.42
2022-11-08T10:10:11.418Z,1.42
2022-11-08T10:12:25.823Z,1.42
2022-11-08T10:14:53.911Z,1.30
2022-11-08T10:17:23.523Z,1.40
2022-11-08T10:20:06.398Z,1.20
2022-11-08T10:22:21.189Z,1.23
2022-11-08T10:24:38.699Z,1.55
2022-11-08T10:26:47.955Z,1.42
2022-11-08T10:28:59.131Z,1.40
2022-11-08T10:31:05.306Z,1.20
2022-11-08T10:33:21.963Z,1.23
2022-11-08T10:35:39.027Z,1.10
2022-11-08T10:37:46.800Z,1.33
2022-11-08T10:42:12.261Z,1.20
2022-11-08T10:44:22.643Z,1.55
2022-11-08T10:46:47.817Z,1.17
2022-11-08T10:48:53.090Z,1.27
2022-11-08T10:51:00.700Z,0.93
2022-11-08T10:53:09.571Z,1.70
2022-11-08T10:55:29.045Z,1.13
2022-11-08T10:57:46.716Z,0.98
2022-11-08T10:59:54.767Z,1.25
2022-11-08T11:02:00.923Z,1.20
2022-11-08T11:04:29.254Z,1.50
2022-11-08T11:06:36.930Z,1.10
2022-11-08T11:10:57.051Z,1.35
2022-11-08T11:13:11.171Z,1.13
2022-11-08T11:15:18.347Z,0.98
2022-11-08T11:17:38.819Z,1.25
2022-11-08T11:19:56.455Z,1.10
2022-11-08T11:22:08.478Z,0.80
2022-11-08T11:24:20.662Z,0.90
2022-11-08T11:26:34.805Z,1.00
2022-11-08T11:28:39.854Z,0.90
2022-11-08T11:30:48.557Z,0.90
2022-11-08T11:33:07.868Z,0.82
2022-11-08T11:35:18.719Z,1.05
2022-11-08T11:37:38.888Z,1.38
2022-11-08T11:39:52.941Z,0.90
2022-11-08T11:42:23.966Z,0.82
2022-11-08T11:44:41.606Z,1.00
2022-11-08T11:46:58.384Z,1.00
2022-11-08T11:49:09.127Z,1.35
2022-11-08T11:51:16.555Z,0.80
2022-11-08T11:53:33.105Z,0.85
2022-11-08T11:56:15.578Z,0.82
2022-11-08T11:58:48.245Z,1.00
2022-11-08T12:01:03.121Z,0.70
2022-11-08T12:04:06.376Z,0.70
2022-11-08T12:06:35.188Z,0.93
2022-11-08T12:09:09.083Z,1.08
2022-11-08T12:11:55.708Z,0.82
2022-11-08T12:14:35.517Z,1.08
2022-11-08T12:17:01.601Z,0.85
2022-11-08T12:19:28.184Z,0.98
2022-11-08T12:21:45.156Z,0.75
2022-11-08T12:24:21.323Z,0.90
2022-11-08T12:26:36.306Z,1.10
2022-11-08T12:29:00.723Z,1.20
2022-11-08T12:31:19.591Z,0.98
2022-11-08T12:33:41.106Z,0.95
2022-11-08T12:36:15.215Z,0.73
2022-11-08T12:38:36.877Z,0.70
2022-11-08T12:40:59.260Z,0.80
2022-11-08T12:43:23.541Z,0.90
2022-11-08T12:45:41.547Z,0.73
2022-11-08T12:47:54.384Z,1.10
2022-11-08T12:50:21.644Z,0.85
2022-11-08T12:52:48.932Z,0.88
2022-11-08T12:57:14.368Z,1.42
2022-11-08T12:59:28.266Z,0.90
2022-11-08T13:01:39.126Z,1.20
2022-11-08T13:04:20.608Z,0.90
2022-11-08T13:06:35.164Z,1.23
2022-11-08T13:08:53.790Z,1.00
2022-11-08T13:11:09.928Z,1.30
2022-11-08T13:13:37.624Z,1.52
2022-11-08T13:16:16.576Z,1.17
2022-11-08T13:18:45.908Z,1.35
2022-11-08T13:20:55.345Z,1.40
2022-11-08T13:23:02.813Z,1.05
2022-11-08T13:25:31.699Z,1.20
2022-11-08T13:27:41.677Z,0.98
2022-11-08T13:29:49.209Z,1.00
2022-11-08T13:32:05.032Z,0.90
2022-11-08T13:34:27.485Z,1.17
2022-11-08T13:36:52.728Z,1.20
2022-11-08T13:39:22.499Z,0.90
2022-11-08T13:41:33.063Z,1.10
2022-11-08T13:43:41.825Z,0.82
2022-11-08T13:45:51.852Z,1.25
2022-11-08T13:48:45.460Z,0.98
2022-11-08T13:50:59.890Z,1.00
2022-11-08T13:53:11.757Z,1.30
2022-11-08T13:56:01.752Z,1.15
2022-11-08T13:58:33.602Z,1.88
2022-11-08T14:00:53.799Z,1.63
2022-11-08T14:03:04.294Z,2.33
2022-11-08T14:05:32.206Z,1.60
2022-11-08T14:07:56.900Z,1.40
2022-11-08T14:10:16.688Z,1.48
2022-11-08T14:12:34.501Z,1.20
2022-11-08T14:14:50.395Z,1.10
2022-11-08T14:17:17.295Z,1.08
2022-11-08T14:19:31.694Z,1.35
2022-11-08T14:23:55.342Z,2.15
2022-11-08T14:26:07.489Z,1.75
2022-11-08T14:28:27.817Z,1.10
2022-11-08T14:30:36.957Z,1.23
2022-11-08T14:32:49.609Z,1.20
2022-11-08T14:34:57.050Z,1.40
2022-11-08T14:37:15.186Z,1.20
2022-11-08T14:39:23.128Z,1.30
2022-11-08T14:41:36.135Z,1.60
2022-11-08T14:43:52.471Z,1.70
2022-11-08T14:46:02.934Z,1.52
2022-11-08T14:48:25.051Z,1.48
2022-11-08T14:50:37.875Z,1.77
2022-11-08T14:52:46.192Z,1.40
2022-11-08T14:55:08.273Z,2.35
2022-11-08T14:57:43.218Z,2.13
2022-11-08T14:59:51.497Z,2.00
2022-11-08T15:02:03.708Z,1.45
2022-11-08T15:04:59.226Z,1.63
2022-11-08T15:07:06.522Z,1.87
2022-11-08T15:09:40.615Z,1.63
2022-11-08T15:11:53.945Z,1.80
2022-11-08T15:14:07.203Z,1.67
2022-11-08T15:16:15.589Z,2.05
2022-11-08T15:18:29.609Z,2.00
2022-11-08T15:20:40.254Z,1.80
2022-11-08T15:22:51.807Z,2.50
2022-11-08T15:25:22.769Z,2.35
2022-11-08T15:27:27.904Z,2.75
2022-11-08T15:29:57.362Z,3.38
2022-11-08T15:32:03.518Z,2.80
2022-11-08T15:34:24.596Z,2.65
2022-11-08T15:36:41.525Z,2.20
2022-11-08T15:38:54.816Z,2.50
2022-11-08T15:41:05.576Z,1.92
2022-11-08T15:43:46.740Z,3.08
2022-11-08T15:45:56.474Z,3.05
2022-11-08T15:48:28.763Z,2.05
2022-11-08T15:50:50.654Z,2.75
2022-11-08T15:53:00.814Z,2.60
2022-11-08T15:55:08.500Z,2.10
2022-11-08T15:59:25.405Z,3.30
2022-11-08T16:01:30.715Z,4.00
2022-11-08T16:03:37.616Z,3.08
2022-11-08T16:05:43.075Z,3.55
2022-11-08T16:07:50.841Z,3.10
2022-11-08T16:09:58.374Z,2.40
2022-11-08T16:12:05.763Z,2.30
2022-11-08T16:14:19.532Z,2.30
2022-11-08T16:16:28.933Z,2.15
2022-11-08T16:18:36.653Z,2.30
2022-11-08T16:20:45.216Z,2.53
2022-11-08T16:22:52.734Z,3.50
2022-11-08T16:25:02.787Z,3.40
2022-11-08T16:27:08.206Z,4.32
2022-11-08T16:29:25.005Z,4.72
2022-11-08T16:31:30.840Z,5.70
2022-11-08T16:33:38.707Z,5.68
2022-11-08T16:35:44.008Z,5.60
2022-11-08T16:37:53.618Z,4.60
2022-11-08T16:40:04.654Z,5.90
2022-11-08T16:42:21.824Z,4.97
2022-11-08T16:44:30.812Z,3.47
2022-11-08T16:46:39.235Z,4.18
2022-11-08T16:48:54.594Z,3.47
2022-11-08T16:51:04.359Z,3.17
2022-11-08T16:53:21.671Z,2.95
2022-11-08T16:55:30.740Z,3.33
2022-11-08T16:57:37.482Z,3.70
2022-11-08T16:59:43.728Z,4.22
2022-11-08T17:01:54.257Z,3.05
2022-11-08T17:03:59.579Z,4.68
2022-11-08T17:06:06.876Z,3.42
2022-11-08T17:08:14.751Z,3.17
2022-11-08T17:12:35.492Z,2.50
2022-11-08T17:14:40.866Z,3.05
2022-11-08T17:16:49.386Z,2.90
2022-11-08T17:18:57.411Z,2.53
2022-11-08T17:21:23.193Z,2.50
2022-11-08T17:23:32.319Z,2.25
2022-11-08T17:25:43.389Z,2.45
2022-11-08T17:28:02.987Z,2.30
2022-11-08T17:30:13.982Z,2.50
2022-11-08T17:32:21.693Z,2.38
2022-11-08T17:34:32.153Z,2.40
2022-11-08T17:36:37.529Z,2.38
2022-11-08T17:38:44.912Z,2.20
2022-11-08T17:43:06.711Z,2.15
2022-11-08T17:45:13.739Z,1.88
2022-11-08T17:47:22.695Z,1.92
2022-11-08T17:49:31.009Z,1.92
2022-11-08T17:51:37.818Z,1.90
2022-11-08T17:53:42.930Z,2.00
2022-11-08T17:55:58.296Z,2.40
2022-11-08T17:58:07.124Z,2.25
2022-11-08T18:00:19.041Z,2.13
2022-11-08T18:02:25.645Z,2.35
2022-11-08T18:04:30.944Z,2.20
2022-11-08T18:06:38.861Z,2.05
2022-11-08T18:08:49.369Z,2.30
2022-11-08T18:10:57.095Z,1.90
2022-11-08T18:13:06.429Z,2.47
2022-11-08T18:15:16.225Z,2.13
2022-11-08T18:17:27.085Z,2.30
2022-11-08T18:19:32.921Z,2.35
2022-11-08T18:21:42.658Z,2.28
2022-11-08T18:23:52.856Z,1.80
2022-11-08T18:26:06.967Z,2.20
2022-11-08T18:28:16.839Z,2.30
2022-11-08T18:30:23.517Z,1.92
2022-11-08T18:32:31.302Z,2.05
2022-11-08T18:34:37.548Z,2.15
2022-11-08T18:36:45.297Z,2.45
2022-11-08T18:40:58.080Z,2.70
2022-11-08T18:43:03.324Z,2.42
2022-11-08T18:45:14.677Z,2.53
2022-11-08T18:47:19.713Z,3.25
2022-11-08T18:49:27.425Z,2.15
2022-11-08T18:53:44.018Z,2.15
2022-11-08T18:55:51.100Z,2.42
2022-11-08T18:58:01.062Z,2.20
2022-11-08T19:00:07.698Z,2.38
2022-11-08T19:02:15.953Z,3.10
2022-11-08T19:04:24.045Z,2.58
2022-11-08T19:06:29.231Z,3.03
2022-11-08T19:08:39.966Z,2.40
2022-11-08T19:10:55.531Z,2.28
2022-11-08T19:13:01.999Z,2.20
2022-11-08T19:15:13.067Z,2.10
2022-11-08T19:17:20.637Z,2.60
2022-11-08T19:19:31.240Z,2.22
2022-11-08T19:21:38.493Z,2.45
2022-11-08T19:23:44.125Z,3.40
2022-11-08T19:25:57.401Z,2.47
2022-11-08T19:28:06.897Z,3.00
2022-11-08T19:30:18.347Z,3.00
2022-11-08T19:32:28.689Z,2.70
2022-11-08T19:34:33.907Z,3.10
2022-11-08T19:36:43.449Z,2.92
2022-11-08T19:38:53.164Z,2.20
2022-11-08T19:41:03.772Z,2.60
2022-11-08T19:43:11.942Z,2.58
2022-11-08T19:45:19.142Z,2.50
2022-11-08T19:47:30.900Z,3.22
2022-11-08T19:49:37.438Z,3.03
2022-11-08T19:51:44.524Z,2.30
2022-11-08T19:53:54.216Z,3.00
2022-11-08T19:56:07.354Z,2.75
2022-11-08T19:58:12.395Z,2.60
2022-11-08T20:00:22.946Z,2.60
2022-11-08T20:02:32.793Z,2.58
2022-11-08T20:04:38.758Z,2.28
2022-11-08T20:06:48.535Z,2.95
2022-11-08T20:08:58.842Z,2.60
2022-11-08T20:11:17.410Z,2.42
2022-11-08T20:13:27.170Z,2.38
2022-11-08T20:15:33.712Z,2.95
2022-11-08T20:17:43.330Z,2.53
2022-11-08T20:19:54.132Z,2.35
2022-11-08T20:22:01.266Z,2.17
2022-11-08T20:24:10.229Z,2.55
2022-11-08T20:26:23.022Z,2.20
2022-11-08T20:28:31.883Z,1.90
2022-11-08T20:30:39.597Z,1.73
2022-11-08T20:34:55.351Z,2.15
2022-11-08T20:37:01.976Z,2.25
2022-11-08T20:39:10.503Z,2.30
2022-11-08T20:41:18.841Z,2.30
2022-11-08T20:43:26.459Z,2.47
2022-11-08T20:45:31.814Z,2.50
2022-11-08T20:47:40.469Z,2.67
2022-11-08T20:49:49.569Z,2.88
2022-11-08T20:51:57.035Z,2.88
2022-11-08T20:54:08.014Z,2.58
2022-11-08T20:56:15.836Z,2.58
2022-11-08T21:00:57.855Z,2.47
2022-11-08T21:02:55.676Z,2.08
2022-11-08T21:05:05.670Z,2.50
2022-11-08T21:09:48.772Z,2.47
2022-11-08T21:11:55.805Z,2.58
2022-11-08T21:14:00.970Z,2.10
2022-11-08T21:16:28.142Z,2.22
2022-11-08T21:18:34.212Z,1.95
2022-11-08T21:20:41.904Z,1.95
2022-11-08T21:22:47.503Z,2.30
2022-11-08T21:24:52.815Z,2.28
2022-11-08T21:26:58.084Z,2.55
2022-11-08T21:29:03.202Z,1.90
2022-11-08T21:31:09.170Z,2.20
2022-11-08T21:33:14.583Z,1.80
2022-11-08T21:35:20.311Z,2.20
2022-11-08T21:37:27.914Z,2.15
2022-11-08T21:41:39.550Z,2.45
2022-11-08T21:43:47.629Z,2.70
2022-11-08T21:45:52.992Z,2.38
2022-11-08T21:47:58.363Z,3.00
2022-11-08T21:50:03.328Z,2.45
2022-11-08T21:52:09.446Z,2.58
2022-11-08T21:54:17.004Z,2.33
2022-11-08T21:56:22.602Z,2.22
2022-11-08T21:58:27.916Z,2.45
2022-11-08T22:00:33.017Z,2.15
2022-11-08T22:02:38.575Z,1.90
2022-11-08T22:04:43.537Z,1.67
2022-11-08T22:06:48.729Z,2.00
2022-11-08T22:08:53.842Z,2.17
2022-11-08T22:11:01.366Z,1.98
2022-11-08T22:13:06.421Z,1.73
2022-11-08T22:15:13.636Z,1.60
2022-11-08T22:17:19.059Z,1.45
2022-11-08T22:19:23.989Z,1.60
2022-11-08T22:21:44.028Z,1.83
2022-11-08T22:23:48.974Z,1.88
2022-11-08T22:25:54.212Z,1.90
2022-11-08T22:28:01.686Z,1.83
2022-11-08T22:30:12.694Z,1.95
2022-11-08T22:32:21.025Z,2.08
2022-11-08T22:34:26.425Z,1.70
2022-11-08T22:36:38.661Z,1.90
2022-11-08T22:38:46.685Z,1.75
2022-11-08T22:40:52.165Z,2.03
2022-11-08T22:42:57.426Z,2.05
2022-11-08T22:45:05.596Z,1.65
2022-11-08T22:47:10.892Z,1.98
2022-11-08T22:49:17.325Z,2.17
2022-11-08T22:51:22.263Z,1.75
2022-11-08T22:53:28.224Z,1.80
2022-11-08T22:55:33.492Z,1.88
2022-11-08T22:57:38.449Z,2.10
2022-11-08T22:59:43.760Z,1.80
2022-11-08T23:01:51.300Z,1.63
2022-11-08T23:03:56.239Z,1.65
2022-11-08T23:06:01.600Z,1.80
2022-11-08T23:08:06.921Z,1.48
2022-11-08T23:10:13.019Z,2.00
2022-11-08T23:12:30.968Z,1.85
2022-11-08T23:14:48.698Z,1.90
2022-11-08T23:19:14.288Z,1.38
2022-11-08T23:21:32.066Z,1.80
2022-11-08T23:25:58.519Z,1.95
2022-11-08T23:28:15.967Z,1.95
2022-11-08T23:30:34.159Z,2.13
2022-11-08T23:32:46.019Z,2.40
2022-11-08T23:34:51.020Z,2.15
2022-11-08T23:36:56.318Z,2.80
2022-11-08T23:39:02.243Z,2.97
2022-11-08T23:41:20.308Z,2.25
2022-11-08T23:43:37.781Z,2.10
2022-11-08T23:45:42.865Z,2.38
2022-11-08T23:47:50.771Z,2.65
2022-11-08T23:49:56.689Z,2.08
2022-11-08T23:52:01.753Z,2.83
2022-11-08T23:54:07.442Z,2.95
2022-11-08T23:56:12.542Z,3.08
2022-11-08T23:58:18.039Z,3.10
